createdAt,value
2016-11-30T00:00:34.492Z,1029.7
2016-11-30T00:05:38.911Z,1029.7
2016-11-30T00:10:43.325Z,1029.6
2016-11-30T00:15:47.409Z,1029.7
2016-11-30T00:20:52.163Z,1029.5
2016-11-30T00:25:56.592Z,1029.4
2016-11-30T00:31:01.013Z,1029.6
2016-11-30T00:36:05.100Z,1029.4
2016-11-30T00:41:09.853Z,1029.5
2016-11-30T00:46:13.936Z,1029.4
2016-11-30T00:51:18.353Z,1029.4
2016-11-30T00:56:22.440Z,1029.3
2016-11-30T01:01:26.864Z,1029.3
2016-11-30T01:06:30.940Z,1029.2
2016-11-30T01:11:35.356Z,1029.3
2016-11-30T01:16:39.770Z,1029.3
2016-11-30T01:21:43.855Z,1029.3
2016-11-30T01:26:47.934Z,1029.2
2016-11-30T01:31:52.355Z,1029.3
2016-11-30T01:36:56.436Z,1029.2
2016-11-30T01:42:01.194Z,1029.2
2016-11-30T01:47:05.276Z,1029.2
2016-11-30T01:52:09.358Z,1029
2016-11-30T01:57:14.110Z,1029
2016-11-30T02:02:18.204Z,1029
2016-11-30T02:07:22.281Z,1028.8
2016-11-30T02:12:26.368Z,1028.8
2016-11-30T02:17:30.446Z,1028.7
2016-11-30T02:22:34.522Z,1028.7
2016-11-30T02:27:38.939Z,1028.7
2016-11-30T02:32:43.360Z,1028.6
2016-11-30T02:37:47.451Z,1028.6
2016-11-30T02:42:51.871Z,1028.6
2016-11-30T02:47:56.958Z,1028.5
2016-11-30T02:53:01.373Z,1028.4
2016-11-30T02:58:05.460Z,1028.4
2016-11-30T03:03:09.882Z,1028.4
2016-11-30T03:08:14.299Z,1028.4
2016-11-30T03:13:18.378Z,1028.4
2016-11-30T03:18:22.463Z,1028.3
2016-11-30T03:23:26.882Z,1028.2
2016-11-30T03:28:31.631Z,1028.2
2016-11-30T03:33:36.045Z,1028.2
2016-11-30T03:38:40.134Z,1028.1
2016-11-30T03:43:44.212Z,1028
2016-11-30T03:48:48.631Z,1028
2016-11-30T03:53:52.713Z,1028
2016-11-30T03:58:57.139Z,1027.9
2016-11-30T04:04:01.223Z,1027.9
2016-11-30T04:09:05.308Z,1027.9
2016-11-30T04:14:09.382Z,1027.9
2016-11-30T04:19:13.800Z,1027.9
2016-11-30T04:24:18.220Z,1027.9
2016-11-30T04:29:22.635Z,1027.9
2016-11-30T04:34:27.388Z,1027.8
2016-11-30T04:39:32.143Z,1027.8
2016-11-30T04:44:36.223Z,1027.7
2016-11-30T04:49:40.636Z,1027.7
2016-11-30T04:54:45.052Z,1027.6
2016-11-30T04:59:49.465Z,1027.6
2016-11-30T05:04:53.548Z,1027.5
2016-11-30T05:09:57.966Z,1027.6
2016-11-30T05:15:02.046Z,1027.5
2016-11-30T05:20:06.469Z,1027.5
2016-11-30T05:25:10.547Z,1027.4
2016-11-30T05:30:14.625Z,1027.2
2016-11-30T05:35:19.077Z,1027.2
2016-11-30T05:40:23.170Z,1027.2
2016-11-30T05:45:27.590Z,1027.1
2016-11-30T05:50:31.679Z,1027.1
2016-11-30T05:55:35.770Z,1027
2016-11-30T06:00:40.522Z,1027
2016-11-30T06:05:44.598Z,1027
2016-11-30T06:10:49.016Z,1027.1
2016-11-30T06:15:53.439Z,1027.1
2016-11-30T06:20:57.855Z,1027
2016-11-30T06:26:02.272Z,1026.9
2016-11-30T06:31:06.352Z,1026.9
2016-11-30T06:36:10.779Z,1026.8
2016-11-30T06:41:14.863Z,1026.7
2016-11-30T06:46:18.949Z,1026.8
2016-11-30T06:51:23.030Z,1026.9
2016-11-30T06:56:27.446Z,1026.9
2016-11-30T07:01:31.532Z,1027.1
2016-11-30T07:06:35.614Z,1027.1
2016-11-30T07:11:40.045Z,1027.1
2016-11-30T07:16:44.469Z,1027.2
2016-11-30T07:21:48.568Z,1027.1
2016-11-30T07:26:52.694Z,1027.1
2016-11-30T07:31:57.105Z,1026.7
2016-11-30T07:37:02.175Z,1026.8
2016-11-30T07:42:06.597Z,1026.7
2016-11-30T07:47:11.366Z,1026.6
2016-11-30T07:52:15.782Z,1026.7
2016-11-30T07:57:20.206Z,1026.7
2016-11-30T08:02:24.295Z,1026.7
2016-11-30T08:07:28.405Z,1026.6
2016-11-30T08:12:32.488Z,1026.6
2016-11-30T08:17:36.923Z,1026.7
2016-11-30T08:22:41.005Z,1026.8
2016-11-30T08:27:45.433Z,1026.8
2016-11-30T08:32:49.853Z,1026.8
2016-11-30T08:37:54.607Z,1026.8
2016-11-30T08:42:58.690Z,1026.8
2016-11-30T08:48:03.459Z,1026.7
2016-11-30T08:53:07.877Z,1026.6
2016-11-30T08:58:11.958Z,1026.5
2016-11-30T09:03:16.377Z,1026.5
2016-11-30T09:08:20.804Z,1026.4
2016-11-30T09:13:25.223Z,1026.5
2016-11-30T09:18:29.643Z,1026.5
2016-11-30T09:23:34.117Z,1026.5
2016-11-30T09:28:38.553Z,1026.6
2016-11-30T09:33:43.641Z,1026.6
2016-11-30T09:38:48.096Z,1026.7
2016-11-30T09:43:52.515Z,1026.7
2016-11-30T09:48:57.268Z,1026.7
2016-11-30T09:54:02.018Z,1026.5
2016-11-30T10:10:17.040Z,1026.4
2016-11-30T10:15:21.122Z,1026.4
2016-11-30T10:20:25.876Z,1026.4
2016-11-30T10:25:30.299Z,1026.3
2016-11-30T10:30:34.715Z,1026.3
2016-11-30T10:35:38.797Z,1026.1
2016-11-30T10:40:43.554Z,1026.4
2016-11-30T10:45:47.972Z,1026.2
2016-11-30T10:50:52.055Z,1025.9
2016-11-30T10:55:56.478Z,1025.7
2016-11-30T11:01:00.566Z,1025.9
2016-11-30T11:06:04.649Z,1025.9
2016-11-30T11:11:09.071Z,1025.8
2016-11-30T11:16:13.198Z,1025.7
2016-11-30T11:21:17.614Z,1025.5
2016-11-30T11:26:22.366Z,1025.4
2016-11-30T11:31:26.785Z,1025.4
2016-11-30T11:36:31.301Z,1025.4
2016-11-30T11:41:35.715Z,1025.4
2016-11-30T11:46:40.466Z,1025.3
2016-11-30T11:51:44.551Z,1025.5
2016-11-30T11:56:48.642Z,1025.4
2016-11-30T12:01:52.729Z,1025.3
2016-11-30T12:06:56.812Z,1025.2
2016-11-30T12:12:00.909Z,1025.1
2016-11-30T12:17:04.993Z,1025
2016-11-30T12:22:09.081Z,1024.8
2016-11-30T12:27:13.168Z,1024.8
2016-11-30T12:32:17.252Z,1024.8
2016-11-30T12:37:22.007Z,1024.8
2016-11-30T12:42:26.091Z,1024.7
2016-11-30T12:47:30.505Z,1024.6
2016-11-30T12:52:34.589Z,1024.6
2016-11-30T12:57:39.009Z,1024.7
2016-11-30T13:02:43.442Z,1024.6
2016-11-30T13:07:48.902Z,1024.7
2016-11-30T13:12:53.164Z,1024.6
2016-11-30T13:17:58.669Z,1024.5
2016-11-30T13:23:03.140Z,1024.5
2016-11-30T13:28:07.606Z,1024.4
2016-11-30T13:33:11.711Z,1024.3
2016-11-30T13:38:16.128Z,1024.2
2016-11-30T13:43:20.210Z,1024.2
2016-11-30T13:48:24.624Z,1024.2
2016-11-30T13:53:28.703Z,1024.2
2016-11-30T13:58:32.794Z,1024.2
2016-11-30T14:03:36.879Z,1024.2
2016-11-30T14:08:40.974Z,1024.2
2016-11-30T14:13:45.065Z,1024
2016-11-30T14:18:49.481Z,1023.9
2016-11-30T14:23:53.900Z,1023.9
2016-11-30T14:28:57.980Z,1023.8
2016-11-30T14:34:02.395Z,1023.9
2016-11-30T14:39:06.477Z,1024
2016-11-30T14:44:11.231Z,1024
2016-11-30T14:49:15.646Z,1024
2016-11-30T14:54:19.736Z,1023.9
2016-11-30T14:59:23.821Z,1024
2016-11-30T15:04:28.234Z,1024
2016-11-30T15:09:32.364Z,1024
2016-11-30T15:14:36.980Z,1023.9
2016-11-30T15:19:41.418Z,1023.9
2016-11-30T15:24:46.396Z,1023.9
2016-11-30T15:29:51.833Z,1023.9
2016-11-30T15:34:56.800Z,1023.8
2016-11-30T15:40:00.887Z,1023.8
2016-11-30T15:45:05.311Z,1023.9
2016-11-30T15:50:09.396Z,1024
2016-11-30T15:55:13.817Z,1023.9
2016-11-30T16:00:18.241Z,1023.8
2016-11-30T16:05:22.351Z,1023.7
2016-11-30T16:10:26.453Z,1023.7
2016-11-30T16:15:31.542Z,1023.9
2016-11-30T16:20:35.964Z,1023.7
2016-11-30T16:25:41.053Z,1023.7
2016-11-30T16:30:46.142Z,1023.6
2016-11-30T16:35:50.232Z,1023.7
2016-11-30T16:40:54.310Z,1023.5
2016-11-30T16:45:58.406Z,1023.5
2016-11-30T16:51:02.508Z,1023.6
2016-11-30T16:56:06.931Z,1023.5
2016-11-30T17:01:11.019Z,1023.3
2016-11-30T17:06:15.437Z,1023.4
2016-11-30T17:11:19.857Z,1023.3
2016-11-30T17:16:23.939Z,1023.2
2016-11-30T17:21:28.022Z,1023.2
2016-11-30T17:26:32.436Z,1023.3
2016-11-30T17:31:36.857Z,1023.4
2016-11-30T17:36:41.620Z,1023.5
2016-11-30T17:41:46.374Z,1023.3
2016-11-30T17:46:50.462Z,1023.3
2016-11-30T17:51:54.540Z,1023.4
2016-11-30T17:56:59.309Z,1023.3
2016-11-30T18:02:03.727Z,1023.5
2016-11-30T18:07:08.486Z,1023.3
2016-11-30T18:12:12.911Z,1023.2
2016-11-30T18:17:17.009Z,1023.4
2016-11-30T18:22:21.773Z,1023.5
2016-11-30T18:27:26.765Z,1023.5
2016-11-30T18:32:31.528Z,1023.5
2016-11-30T18:37:35.949Z,1023.5
2016-11-30T18:42:40.362Z,1023.5
2016-11-30T18:47:44.771Z,1023.6
2016-11-30T18:52:49.186Z,1023.5
2016-11-30T18:57:53.297Z,1023.3
2016-11-30T19:02:57.731Z,1023.2
2016-11-30T19:08:01.818Z,1023.3
2016-11-30T19:13:05.902Z,1023.3
2016-11-30T19:18:10.657Z,1023.2
2016-11-30T19:23:14.735Z,1023.1
2016-11-30T19:28:19.829Z,1023.1
2016-11-30T19:33:23.915Z,1023.2
2016-11-30T19:38:28.677Z,1023.3
2016-11-30T19:43:32.767Z,1023.2
2016-11-30T19:48:37.199Z,1023.2
2016-11-30T19:53:41.626Z,1023.2
2016-11-30T19:58:45.711Z,1023.2
2016-11-30T20:03:50.134Z,1023.2
2016-11-30T20:08:54.220Z,1023.2
2016-11-30T20:13:58.306Z,1023.2
2016-11-30T20:19:02.747Z,1023.1
2016-11-30T20:24:07.170Z,1023.1
2016-11-30T20:29:11.255Z,1023
2016-11-30T20:34:15.384Z,1023
2016-11-30T20:39:19.809Z,1023
2016-11-30T20:44:23.947Z,1022.9
2016-11-30T20:49:28.280Z,1022.8
2016-11-30T20:54:32.359Z,1022.9
2016-11-30T20:59:36.451Z,1023
2016-11-30T21:04:40.870Z,1022.9
2016-11-30T21:09:44.958Z,1022.8
2016-11-30T21:14:49.051Z,1022.8
2016-11-30T21:19:53.470Z,1022.6
2016-11-30T21:24:57.895Z,1022.5
2016-11-30T21:30:02.651Z,1022.5
2016-11-30T21:35:07.410Z,1022.6
2016-11-30T21:40:11.496Z,1022.6
2016-11-30T21:45:15.913Z,1022.6
2016-11-30T21:50:20.335Z,1022.5
2016-11-30T21:55:24.416Z,1022.5
2016-11-30T22:00:28.503Z,1022.5
2016-11-30T22:05:33.256Z,1022.6
2016-11-30T22:10:38.017Z,1022.6
2016-11-30T22:15:42.103Z,1022.5
2016-11-30T22:20:46.194Z,1022.5
2016-11-30T22:25:50.281Z,1022.6
2016-11-30T22:30:54.367Z,1022.6
2016-11-30T22:35:58.786Z,1022.6
2016-11-30T22:41:03.201Z,1022.5
2016-11-30T22:46:07.311Z,1022.6
2016-11-30T22:51:12.399Z,1022.6
2016-11-30T22:56:16.485Z,1022.5
2016-11-30T23:01:21.246Z,1022.5
2016-11-30T23:06:25.670Z,1022.4
2016-11-30T23:11:30.429Z,1022.4
2016-11-30T23:16:34.510Z,1022.4
2016-11-30T23:21:38.931Z,1022.4
2016-11-30T23:26:43.013Z,1022.3
2016-11-30T23:31:47.102Z,1022.3
2016-11-30T23:36:51.862Z,1022.2
2016-11-30T23:41:56.966Z,1022.1
2016-11-30T23:47:01.057Z,1022.2
2016-11-30T23:52:05.144Z,1022.1
2016-11-30T23:57:09.226Z,1022.1
